sensor_id;sensor_type;location;lat;lon;timestamp;pressure;altitude;pressure_sealevel;temperature;humidity
53246;BME280;39569;51.090;-1.786;2023-05-20T00:00:02;102052.19;;;20.73;46.10
53246;BME280;39569;51.090;-1.786;2023-05-20T00:02:31;102056.75;;;20.60;46.37
53246;BME280;39569;51.090;-1.786;2023-05-20T00:04:57;102055.91;;;20.59;46.35
53246;BME280;39569;51.090;-1.786;2023-05-20T00:07:24;102061.56;;;20.58;46.17
53246;BME280;39569;51.090;-1.786;2023-05-20T00:09:51;102061.97;;;20.48;46.66
53246;BME280;39569;51.090;-1.786;2023-05-20T00:12:18;102063.63;;;20.42;46.61
53246;BME280;39569;51.090;-1.786;2023-05-20T00:14:45;102057.34;;;20.42;46.50
53246;BME280;39569;51.090;-1.786;2023-05-20T00:17:13;102061.97;;;20.41;46.36
53246;BME280;39569;51.090;-1.786;2023-05-20T00:19:40;102065.72;;;20.34;46.53
53246;BME280;39569;51.090;-1.786;2023-05-20T00:22:06;102071.72;;;20.23;46.89
53246;BME280;39569;51.090;-1.786;2023-05-20T00:24:33;102061.28;;;20.20;46.84
53246;BME280;39569;51.090;-1.786;2023-05-20T00:27:00;102067.75;;;20.19;46.70
53246;BME280;39569;51.090;-1.786;2023-05-20T00:29:27;102064.97;;;20.06;47.14
53246;BME280;39569;51.090;-1.786;2023-05-20T00:31:54;102066.88;;;20.12;47.05
53246;BME280;39569;51.090;-1.786;2023-05-20T00:34:23;102061.50;;;20.25;46.71
53246;BME280;39569;51.090;-1.786;2023-05-20T00:36:49;102060.88;;;20.23;46.38
53246;BME280;39569;51.090;-1.786;2023-05-20T00:39:17;102069.97;;;20.02;47.07
53246;BME280;39569;51.090;-1.786;2023-05-20T00:41:43;102066.22;;;20.10;46.71
53246;BME280;39569;51.090;-1.786;2023-05-20T00:44:10;102064.78;;;20.14;46.69
53246;BME280;39569;51.090;-1.786;2023-05-20T00:46:37;102063.75;;;20.15;46.45
53246;BME280;39569;51.090;-1.786;2023-05-20T00:49:04;102061.19;;;20.07;46.48
53246;BME280;39569;51.090;-1.786;2023-05-20T00:51:33;102066.22;;;20.10;46.41
53246;BME280;39569;51.090;-1.786;2023-05-20T00:54:00;102062.88;;;20.08;46.29
53246;BME280;39569;51.090;-1.786;2023-05-20T00:56:27;102064.13;;;19.99;46.36
53246;BME280;39569;51.090;-1.786;2023-05-20T00:58:54;102060.13;;;19.88;46.59
53246;BME280;39569;51.090;-1.786;2023-05-20T01:01:21;102064.69;;;19.88;46.60
53246;BME280;39569;51.090;-1.786;2023-05-20T01:03:48;102060.53;;;19.92;46.51
53246;BME280;39569;51.090;-1.786;2023-05-20T01:06:15;102062.78;;;19.82;46.69
53246;BME280;39569;51.090;-1.786;2023-05-20T01:08:43;102056.94;;;19.85;46.64
53246;BME280;39569;51.090;-1.786;2023-05-20T01:11:12;102055.75;;;19.94;46.64
53246;BME280;39569;51.090;-1.786;2023-05-20T01:13:44;102054.69;;;19.95;46.49
53246;BME280;39569;51.090;-1.786;2023-05-20T01:16:14;102056.94;;;19.85;46.51
53246;BME280;39569;51.090;-1.786;2023-05-20T01:18:44;102059.22;;;19.81;46.54
53246;BME280;39569;51.090;-1.786;2023-05-20T01:21:14;102047.53;;;19.74;46.18
53246;BME280;39569;51.090;-1.786;2023-05-20T01:23:42;102051.06;;;19.75;46.50
53246;BME280;39569;51.090;-1.786;2023-05-20T01:26:09;102048.56;;;19.73;46.46
53246;BME280;39569;51.090;-1.786;2023-05-20T01:28:38;102045.38;;;19.63;46.49
53246;BME280;39569;51.090;-1.786;2023-05-20T01:31:10;102043.91;;;19.60;46.69
53246;BME280;39569;51.090;-1.786;2023-05-20T01:33:40;102037.47;;;19.62;46.66
53246;BME280;39569;51.090;-1.786;2023-05-20T01:36:08;102035.34;;;19.57;46.71
53246;BME280;39569;51.090;-1.786;2023-05-20T01:38:36;102037.41;;;19.48;47.00
53246;BME280;39569;51.090;-1.786;2023-05-20T01:41:05;102044.53;;;19.56;46.58
53246;BME280;39569;51.090;-1.786;2023-05-20T01:43:34;102041.59;;;19.51;46.64
53246;BME280;39569;51.090;-1.786;2023-05-20T01:46:04;102041.59;;;19.51;46.58
53246;BME280;39569;51.090;-1.786;2023-05-20T01:48:31;102045.28;;;19.43;46.80
53246;BME280;39569;51.090;-1.786;2023-05-20T01:50:59;102037.63;;;19.53;46.56
53246;BME280;39569;51.090;-1.786;2023-05-20T01:53:25;102041.34;;;19.46;46.90
53246;BME280;39569;51.090;-1.786;2023-05-20T01:55:52;102043.38;;;19.37;46.87
53246;BME280;39569;51.090;-1.786;2023-05-20T01:58:20;102040.91;;;19.42;46.80
53246;BME280;39569;51.090;-1.786;2023-05-20T02:00:47;102036.47;;;19.35;46.81
53246;BME280;39569;51.090;-1.786;2023-05-20T02:03:13;102032.84;;;19.21;46.75
53246;BME280;39569;51.090;-1.786;2023-05-20T02:05:40;102027.59;;;19.20;46.66
53246;BME280;39569;51.090;-1.786;2023-05-20T02:08:07;102030.06;;;19.15;46.61
53246;BME280;39569;51.090;-1.786;2023-05-20T02:10:34;102022.03;;;18.94;47.14
53246;BME280;39569;51.090;-1.786;2023-05-20T02:13:00;102027.72;;;19.05;47.01
53246;BME280;39569;51.090;-1.786;2023-05-20T02:15:28;102037.56;;;19.13;46.82
53246;BME280;39569;51.090;-1.786;2023-05-20T02:17:55;102025.84;;;19.06;46.88
53246;BME280;39569;51.090;-1.786;2023-05-20T02:20:22;102028.59;;;18.85;47.51
53246;BME280;39569;51.090;-1.786;2023-05-20T02:22:49;102018.94;;;18.76;47.66
53246;BME280;39569;51.090;-1.786;2023-05-20T02:25:16;102020.34;;;18.93;47.32
53246;BME280;39569;51.090;-1.786;2023-05-20T02:27:43;102023.13;;;19.06;46.98
53246;BME280;39569;51.090;-1.786;2023-05-20T02:30:10;102023.91;;;19.00;47.05
53246;BME280;39569;51.090;-1.786;2023-05-20T02:32:38;102022.47;;;18.97;47.02
53246;BME280;39569;51.090;-1.786;2023-05-20T02:35:05;102032.00;;;18.93;46.90
53246;BME280;39569;51.090;-1.786;2023-05-20T02:37:32;102022.91;;;18.73;47.35
53246;BME280;39569;51.090;-1.786;2023-05-20T02:39:58;102020.56;;;18.70;46.63
53246;BME280;39569;51.090;-1.786;2023-05-20T02:42:25;102020.66;;;18.55;47.13
53246;BME280;39569;51.090;-1.786;2023-05-20T02:44:52;102027.56;;;18.58;46.83
53246;BME280;39569;51.090;-1.786;2023-05-20T02:47:22;102026.59;;;18.44;47.04
53246;BME280;39569;51.090;-1.786;2023-05-20T02:49:50;102024.41;;;18.54;47.02
53246;BME280;39569;51.090;-1.786;2023-05-20T02:52:17;102023.69;;;18.46;46.66
53246;BME280;39569;51.090;-1.786;2023-05-20T02:54:45;102019.41;;;18.37;46.91
53246;BME280;39569;51.090;-1.786;2023-05-20T02:57:12;102025.66;;;18.37;46.87
53246;BME280;39569;51.090;-1.786;2023-05-20T02:59:39;102021.03;;;18.31;46.84
53246;BME280;39569;51.090;-1.786;2023-05-20T03:02:06;102019.28;;;18.03;47.25
53246;BME280;39569;51.090;-1.786;2023-05-20T03:04:33;102020.03;;;17.97;47.39
53246;BME280;39569;51.090;-1.786;2023-05-20T03:07:04;102019.84;;;17.98;47.51
53246;BME280;39569;51.090;-1.786;2023-05-20T03:09:31;102013.59;;;17.98;47.75
53246;BME280;39569;51.090;-1.786;2023-05-20T03:11:58;102020.28;;;18.02;47.21
53246;BME280;39569;51.090;-1.786;2023-05-20T03:14:25;102018.22;;;17.83;47.53
53246;BME280;39569;51.090;-1.786;2023-05-20T03:16:52;102020.50;;;18.00;46.65
53246;BME280;39569;51.090;-1.786;2023-05-20T03:19:20;102022.34;;;17.64;47.55
53246;BME280;39569;51.090;-1.786;2023-05-20T03:21:47;102013.13;;;17.73;47.35
53246;BME280;39569;51.090;-1.786;2023-05-20T03:24:16;102009.16;;;17.76;47.21
53246;BME280;39569;51.090;-1.786;2023-05-20T03:26:43;102002.69;;;17.55;47.99
53246;BME280;39569;51.090;-1.786;2023-05-20T03:29:11;101997.94;;;17.57;47.53
53246;BME280;39569;51.090;-1.786;2023-05-20T03:31:38;101997.94;;;17.57;47.52
53246;BME280;39569;51.090;-1.786;2023-05-20T03:34:04;101996.72;;;17.45;47.63
53246;BME280;39569;51.090;-1.786;2023-05-20T03:36:31;101991.69;;;17.42;47.84
53246;BME280;39569;51.090;-1.786;2023-05-20T03:38:58;101984.53;;;17.20;48.37
53246;BME280;39569;51.090;-1.786;2023-05-20T03:41:27;101987.88;;;16.79;49.25
53246;BME280;39569;51.090;-1.786;2023-05-20T03:43:54;101985.91;;;16.73;49.36
53246;BME280;39569;51.090;-1.786;2023-05-20T03:46:20;101989.19;;;17.12;48.77
53246;BME280;39569;51.090;-1.786;2023-05-20T03:48:47;101989.84;;;16.99;48.93
53246;BME280;39569;51.090;-1.786;2023-05-20T03:51:14;101987.34;;;17.12;48.45
53246;BME280;39569;51.090;-1.786;2023-05-20T03:53:41;101991.44;;;17.08;48.84
53246;BME280;39569;51.090;-1.786;2023-05-20T03:56:07;101986.50;;;17.26;48.42
53246;BME280;39569;51.090;-1.786;2023-05-20T03:58:35;101988.72;;;17.23;48.41
53246;BME280;39569;51.090;-1.786;2023-05-20T04:01:03;101995.25;;;17.28;48.07
53246;BME280;39569;51.090;-1.786;2023-05-20T04:03:29;102002.59;;;17.20;48.08
53246;BME280;39569;51.090;-1.786;2023-05-20T04:05:56;101995.69;;;17.46;47.35
53246;BME280;39569;51.090;-1.786;2023-05-20T04:08:23;101989.84;;;17.28;47.70
53246;BME280;39569;51.090;-1.786;2023-05-20T04:10:50;101993.47;;;17.50;47.58
53246;BME280;39569;51.090;-1.786;2023-05-20T04:13:20;101990.28;;;17.46;47.82
53246;BME280;39569;51.090;-1.786;2023-05-20T04:15:51;101989.66;;;17.30;47.52
53246;BME280;39569;51.090;-1.786;2023-05-20T04:18:18;101992.72;;;17.41;47.56
53246;BME280;39569;51.090;-1.786;2023-05-20T04:20:45;101981.19;;;17.18;47.92
53246;BME280;39569;51.090;-1.786;2023-05-20T04:23:12;101985.38;;;17.35;47.66
53246;BME280;39569;51.090;-1.786;2023-05-20T04:25:39;101990.84;;;16.98;48.17
53246;BME280;39569;51.090;-1.786;2023-05-20T04:28:06;101987.97;;;17.00;48.39
53246;BME280;39569;51.090;-1.786;2023-05-20T04:30:34;101990.84;;;16.98;48.40
53246;BME280;39569;51.090;-1.786;2023-05-20T04:33:03;101988.81;;;17.00;48.55
53246;BME280;39569;51.090;-1.786;2023-05-20T04:35:30;102001.09;;;16.88;48.84
53246;BME280;39569;51.090;-1.786;2023-05-20T04:37:59;101998.75;;;17.14;47.96
53246;BME280;39569;51.090;-1.786;2023-05-20T04:40:26;102001.19;;;17.24;47.91
53246;BME280;39569;51.090;-1.786;2023-05-20T04:42:53;101998.22;;;17.19;48.12
53246;BME280;39569;51.090;-1.786;2023-05-20T04:45:20;101998.38;;;17.46;47.48
53246;BME280;39569;51.090;-1.786;2023-05-20T04:47:47;101998.22;;;17.33;47.86
53246;BME280;39569;51.090;-1.786;2023-05-20T04:50:16;101992.56;;;17.14;48.44
53246;BME280;39569;51.090;-1.786;2023-05-20T04:52:43;101984.53;;;17.20;48.27
53246;BME280;39569;51.090;-1.786;2023-05-20T04:55:11;101984.06;;;17.31;48.22
53246;BME280;39569;51.090;-1.786;2023-05-20T04:57:38;101988.63;;;17.16;48.35
53246;BME280;39569;51.090;-1.786;2023-05-20T05:00:07;101993.47;;;16.77;49.75
53246;BME280;39569;51.090;-1.786;2023-05-20T05:02:35;101992.63;;;16.91;49.37
53246;BME280;39569;51.090;-1.786;2023-05-20T05:05:01;101989.09;;;16.53;50.35
53246;BME280;39569;51.090;-1.786;2023-05-20T05:07:30;101990.84;;;16.98;49.53
53246;BME280;39569;51.090;-1.786;2023-05-20T05:09:56;101986.38;;;16.91;49.65
53246;BME280;39569;51.090;-1.786;2023-05-20T05:12:23;101989.47;;;17.17;48.76
53246;BME280;39569;51.090;-1.786;2023-05-20T05:14:50;101986.38;;;17.05;49.17
53246;BME280;39569;51.090;-1.786;2023-05-20T05:17:16;102000.06;;;16.89;49.62
53246;BME280;39569;51.090;-1.786;2023-05-20T05:19:43;101996.81;;;17.37;48.65
53246;BME280;39569;51.090;-1.786;2023-05-20T05:22:10;101995.34;;;17.85;47.31
53246;BME280;39569;51.090;-1.786;2023-05-20T05:24:38;101997.56;;;17.96;47.48
53246;BME280;39569;51.090;-1.786;2023-05-20T05:27:05;102005.13;;;17.21;49.05
53246;BME280;39569;51.090;-1.786;2023-05-20T05:29:32;102002.50;;;17.72;47.83
53246;BME280;39569;51.090;-1.786;2023-05-20T05:31:59;101998.38;;;17.76;47.82
53246;BME280;39569;51.090;-1.786;2023-05-20T05:34:25;101998.00;;;17.79;47.96
53246;BME280;39569;51.090;-1.786;2023-05-20T05:36:52;101996.91;;;17.94;47.70
53246;BME280;39569;51.090;-1.786;2023-05-20T05:39:19;101993.91;;;18.25;47.23
53246;BME280;39569;51.090;-1.786;2023-05-20T05:41:47;102001.03;;;18.47;46.75
53246;BME280;39569;51.090;-1.786;2023-05-20T05:44:13;101993.28;;;18.23;47.43
53246;BME280;39569;51.090;-1.786;2023-05-20T05:46:40;102003.38;;;18.14;47.89
53246;BME280;39569;51.090;-1.786;2023-05-20T05:49:07;102002.41;;;18.22;47.36
53246;BME280;39569;51.090;-1.786;2023-05-20T05:51:34;102009.19;;;18.32;47.69
53246;BME280;39569;51.090;-1.786;2023-05-20T05:54:00;102006.28;;;18.55;47.38
53246;BME280;39569;51.090;-1.786;2023-05-20T05:56:27;101995.03;;;18.79;46.66
53246;BME280;39569;51.090;-1.786;2023-05-20T05:58:55;101998.31;;;19.02;46.47
53246;BME280;39569;51.090;-1.786;2023-05-20T06:01:22;101994.84;;;19.08;46.45
53246;BME280;39569;51.090;-1.786;2023-05-20T06:03:49;102000.16;;;19.29;46.39
53246;BME280;39569;51.090;-1.786;2023-05-20T06:06:15;101995.06;;;19.13;46.45
53246;BME280;39569;51.090;-1.786;2023-05-20T06:08:42;101986.66;;;19.02;46.29
53246;BME280;39569;51.090;-1.786;2023-05-20T06:11:09;101986.81;;;19.62;45.65
53246;BME280;39569;51.090;-1.786;2023-05-20T06:13:36;101994.59;;;19.91;45.16
53246;BME280;39569;51.090;-1.786;2023-05-20T06:16:04;101988.34;;;19.91;45.09
53246;BME280;39569;51.090;-1.786;2023-05-20T06:18:31;101992.75;;;19.92;45.22
53246;BME280;39569;51.090;-1.786;2023-05-20T06:20:58;101986.94;;;20.08;45.06
53246;BME280;39569;51.090;-1.786;2023-05-20T06:23:25;101988.69;;;20.41;44.64
53246;BME280;39569;51.090;-1.786;2023-05-20T06:25:56;101992.66;;;20.52;44.20
53246;BME280;39569;51.090;-1.786;2023-05-20T06:28:24;101985.94;;;20.74;43.57
53246;BME280;39569;51.090;-1.786;2023-05-20T06:30:50;101980.09;;;20.77;43.63
53246;BME280;39569;51.090;-1.786;2023-05-20T06:33:19;101985.75;;;20.82;43.25
53246;BME280;39569;51.090;-1.786;2023-05-20T06:35:50;101984.47;;;21.11;42.69
53246;BME280;39569;51.090;-1.786;2023-05-20T06:38:16;101978.44;;;20.76;42.82
53246;BME280;39569;51.090;-1.786;2023-05-20T06:40:43;101972.75;;;21.17;42.19
53246;BME280;39569;51.090;-1.786;2023-05-20T06:43:10;101969.59;;;21.20;42.03
53246;BME280;39569;51.090;-1.786;2023-05-20T06:45:37;101970.25;;;21.09;42.26
53246;BME280;39569;51.090;-1.786;2023-05-20T06:48:04;101963.78;;;20.97;41.73
53246;BME280;39569;51.090;-1.786;2023-05-20T06:50:32;101965.34;;;21.37;40.53
53246;BME280;39569;51.090;-1.786;2023-05-20T06:52:59;101964.09;;;21.33;41.14
53246;BME280;39569;51.090;-1.786;2023-05-20T06:55:26;101959.41;;;21.60;40.75
53246;BME280;39569;51.090;-1.786;2023-05-20T06:57:53;101973.31;;;21.32;41.22
53246;BME280;39569;51.090;-1.786;2023-05-20T07:00:20;101955.88;;;21.52;40.68
53246;BME280;39569;51.090;-1.786;2023-05-20T07:02:47;101959.63;;;21.58;40.74
53246;BME280;39569;51.090;-1.786;2023-05-20T07:05:13;101946.00;;;21.65;39.81
53246;BME280;39569;51.090;-1.786;2023-05-20T07:07:41;101956.19;;;21.82;39.12
53246;BME280;39569;51.090;-1.786;2023-05-20T07:10:08;101953.19;;;21.90;39.60
53246;BME280;39569;51.090;-1.786;2023-05-20T07:12:35;101949.47;;;22.16;39.52
53246;BME280;39569;51.090;-1.786;2023-05-20T07:15:02;101955.94;;;22.21;38.94
53246;BME280;39569;51.090;-1.786;2023-05-20T07:17:30;101949.97;;;22.31;39.43
53246;BME280;39569;51.090;-1.786;2023-05-20T07:19:57;101955.22;;;22.32;39.18
53246;BME280;39569;51.090;-1.786;2023-05-20T07:22:23;101958.59;;;21.97;39.56
53246;BME280;39569;51.090;-1.786;2023-05-20T07:24:51;101948.31;;;22.30;38.84
53246;BME280;39569;51.090;-1.786;2023-05-20T07:27:18;101954.72;;;22.11;39.01
53246;BME280;39569;51.090;-1.786;2023-05-20T07:29:45;101940.34;;;22.53;38.40
53246;BME280;39569;51.090;-1.786;2023-05-20T07:32:12;101950.22;;;22.54;38.87
53246;BME280;39569;51.090;-1.786;2023-05-20T07:34:38;101949.88;;;22.69;38.73
53246;BME280;39569;51.090;-1.786;2023-05-20T07:37:05;101939.09;;;22.80;38.31
53246;BME280;39569;51.090;-1.786;2023-05-20T07:39:34;101943.81;;;22.91;37.07
53246;BME280;39569;51.090;-1.786;2023-05-20T07:42:02;101943.56;;;22.93;38.24
53246;BME280;39569;51.090;-1.786;2023-05-20T07:44:29;101945.19;;;23.36;37.78
53246;BME280;39569;51.090;-1.786;2023-05-20T07:46:56;101945.47;;;23.28;37.38
53246;BME280;39569;51.090;-1.786;2023-05-20T07:49:23;101941.56;;;23.72;37.00
53246;BME280;39569;51.090;-1.786;2023-05-20T07:51:49;101942.09;;;23.92;36.94
53246;BME280;39569;51.090;-1.786;2023-05-20T07:54:16;101937.25;;;24.24;36.66
53246;BME280;39569;51.090;-1.786;2023-05-20T07:56:43;101937.03;;;24.49;35.78
53246;BME280;39569;51.090;-1.786;2023-05-20T07:59:11;101939.06;;;24.99;36.13
53246;BME280;39569;51.090;-1.786;2023-05-20T08:01:40;101936.97;;;24.78;35.54
53246;BME280;39569;51.090;-1.786;2023-05-20T08:04:07;101943.81;;;24.58;34.65
53246;BME280;39569;51.090;-1.786;2023-05-20T08:06:34;101925.97;;;25.13;35.46
53246;BME280;39569;51.090;-1.786;2023-05-20T08:09:01;101921.25;;;25.37;34.81
53246;BME280;39569;51.090;-1.786;2023-05-20T08:11:28;101924.53;;;25.10;33.66
53246;BME280;39569;51.090;-1.786;2023-05-20T08:13:55;101918.66;;;25.70;33.59
53246;BME280;39569;51.090;-1.786;2023-05-20T08:16:23;101912.09;;;25.54;34.14
53246;BME280;39569;51.090;-1.786;2023-05-20T08:18:50;101916.03;;;25.47;35.42
53246;BME280;39569;51.090;-1.786;2023-05-20T08:21:17;101906.78;;;25.92;34.97
53246;BME280;39569;51.090;-1.786;2023-05-20T08:23:44;101917.69;;;26.20;32.84
53246;BME280;39569;51.090;-1.786;2023-05-20T08:26:10;101917.72;;;25.92;34.36
53246;BME280;39569;51.090;-1.786;2023-05-20T08:28:37;101915.56;;;26.22;34.39
53246;BME280;39569;51.090;-1.786;2023-05-20T08:31:04;101919.84;;;25.74;35.16
53246;BME280;39569;51.090;-1.786;2023-05-20T08:33:32;101922.53;;;26.13;34.23
53246;BME280;39569;51.090;-1.786;2023-05-20T08:35:59;101931.81;;;26.46;34.06
53246;BME280;39569;51.090;-1.786;2023-05-20T08:38:26;101919.69;;;26.75;33.64
53246;BME280;39569;51.090;-1.786;2023-05-20T08:40:54;101926.94;;;27.02;32.69
53246;BME280;39569;51.090;-1.786;2023-05-20T08:43:21;101922.53;;;27.01;33.32
53246;BME280;39569;51.090;-1.786;2023-05-20T08:45:48;101927.00;;;27.07;32.64
53246;BME280;39569;51.090;-1.786;2023-05-20T08:48:17;101919.28;;;27.48;31.60
53246;BME280;39569;51.090;-1.786;2023-05-20T08:50:49;101919.16;;;27.16;33.22
53246;BME280;39569;51.090;-1.786;2023-05-20T08:53:16;101916.50;;;27.21;33.10
53246;BME280;39569;51.090;-1.786;2023-05-20T08:55:45;101916.75;;;27.68;31.25
53246;BME280;39569;51.090;-1.786;2023-05-20T08:58:14;101913.88;;;27.09;31.29
53246;BME280;39569;51.090;-1.786;2023-05-20T09:00:43;101909.59;;;27.40;32.34
53246;BME280;39569;51.090;-1.786;2023-05-20T09:03:10;101916.34;;;27.81;31.02
53246;BME280;39569;51.090;-1.786;2023-05-20T09:05:37;101906.56;;;28.17;31.03
53246;BME280;39569;51.090;-1.786;2023-05-20T09:08:06;101905.16;;;28.14;30.97
53246;BME280;39569;51.090;-1.786;2023-05-20T09:10:33;101903.97;;;28.05;30.38
53246;BME280;39569;51.090;-1.786;2023-05-20T09:13:00;101901.22;;;28.37;31.52
53246;BME280;39569;51.090;-1.786;2023-05-20T09:15:28;101907.84;;;28.41;30.99
53246;BME280;39569;51.090;-1.786;2023-05-20T09:17:58;101901.38;;;28.20;30.63
53246;BME280;39569;51.090;-1.786;2023-05-20T09:20:25;101889.78;;;28.13;30.50
53246;BME280;39569;51.090;-1.786;2023-05-20T09:22:53;101887.06;;;29.01;29.80
53246;BME280;39569;51.090;-1.786;2023-05-20T09:25:25;101890.06;;;29.62;29.47
53246;BME280;39569;51.090;-1.786;2023-05-20T09:27:52;101887.34;;;29.00;30.60
53246;BME280;39569;51.090;-1.786;2023-05-20T09:30:19;101885.72;;;29.04;32.03
53246;BME280;39569;51.090;-1.786;2023-05-20T09:32:51;101887.53;;;28.83;29.04
53246;BME280;39569;51.090;-1.786;2023-05-20T09:35:18;101872.56;;;29.16;27.98
53246;BME280;39569;51.090;-1.786;2023-05-20T09:37:46;101876.84;;;29.64;27.88
53246;BME280;39569;51.090;-1.786;2023-05-20T09:40:14;101874.16;;;30.04;28.10
53246;BME280;39569;51.090;-1.786;2023-05-20T09:42:52;101883.81;;;30.37;27.16
53246;BME280;39569;51.090;-1.786;2023-05-20T09:45:20;101872.38;;;29.48;27.91
53246;BME280;39569;51.090;-1.786;2023-05-20T09:47:49;101871.06;;;29.65;28.37
53246;BME280;39569;51.090;-1.786;2023-05-20T09:50:16;101871.41;;;30.29;27.59
53246;BME280;39569;51.090;-1.786;2023-05-20T09:52:46;101868.53;;;30.89;27.58
53246;BME280;39569;51.090;-1.786;2023-05-20T09:55:13;101861.38;;;30.83;29.16
53246;BME280;39569;51.090;-1.786;2023-05-20T09:57:41;101866.59;;;30.80;28.47
53246;BME280;39569;51.090;-1.786;2023-05-20T10:00:09;101856.19;;;30.57;26.29
53246;BME280;39569;51.090;-1.786;2023-05-20T10:02:40;101861.94;;;30.80;28.75
53246;BME280;39569;51.090;-1.786;2023-05-20T10:05:14;101858.06;;;30.71;27.26
53246;BME280;39569;51.090;-1.786;2023-05-20T10:07:55;101861.75;;;30.47;29.66
53246;BME280;39569;51.090;-1.786;2023-05-20T10:10:31;101853.81;;;31.09;28.77
53246;BME280;39569;51.090;-1.786;2023-05-20T10:13:15;101860.31;;;31.43;27.55
53246;BME280;39569;51.090;-1.786;2023-05-20T10:16:12;101852.53;;;30.86;28.29
53246;BME280;39569;51.090;-1.786;2023-05-20T10:18:49;101856.34;;;30.95;27.00
53246;BME280;39569;51.090;-1.786;2023-05-20T10:21:21;101855.25;;;31.55;27.15
53246;BME280;39569;51.090;-1.786;2023-05-20T10:23:49;101852.94;;;31.19;27.75
53246;BME280;39569;51.090;-1.786;2023-05-20T10:26:16;101846.88;;;31.17;30.38
53246;BME280;39569;51.090;-1.786;2023-05-20T10:28:44;101853.66;;;31.83;27.20
53246;BME280;39569;51.090;-1.786;2023-05-20T10:31:17;101842.91;;;31.33;27.81
53246;BME280;39569;51.090;-1.786;2023-05-20T10:33:45;101843.78;;;31.23;27.36
53246;BME280;39569;51.090;-1.786;2023-05-20T10:36:21;101850.13;;;30.60;27.24
53246;BME280;39569;51.090;-1.786;2023-05-20T10:38:53;101849.22;;;30.89;28.35
53246;BME280;39569;51.090;-1.786;2023-05-20T10:41:21;101831.94;;;31.66;27.86
53246;BME280;39569;51.090;-1.786;2023-05-20T10:43:58;101849.66;;;31.60;26.42
53246;BME280;39569;51.090;-1.786;2023-05-20T10:46:28;101833.75;;;31.81;26.14
53246;BME280;39569;51.090;-1.786;2023-05-20T10:48:54;101824.66;;;31.42;27.50
53246;BME280;39569;51.090;-1.786;2023-05-20T10:51:22;101828.16;;;32.25;26.50
53246;BME280;39569;51.090;-1.786;2023-05-20T10:53:52;101826.84;;;31.83;26.14
53246;BME280;39569;51.090;-1.786;2023-05-20T10:56:21;101824.72;;;31.32;26.81
53246;BME280;39569;51.090;-1.786;2023-05-20T10:58:48;101820.66;;;31.63;26.10
53246;BME280;39569;51.090;-1.786;2023-05-20T11:01:16;101825.44;;;31.47;25.68
53246;BME280;39569;51.090;-1.786;2023-05-20T11:03:45;101821.25;;;31.88;28.33
53246;BME280;39569;51.090;-1.786;2023-05-20T11:06:13;101818.78;;;31.92;27.38
53246;BME280;39569;51.090;-1.786;2023-05-20T11:08:40;101814.53;;;31.66;25.45
53246;BME280;39569;51.090;-1.786;2023-05-20T11:11:08;101817.19;;;31.81;25.39
53246;BME280;39569;51.090;-1.786;2023-05-20T11:13:36;101830.63;;;31.59;25.96
53246;BME280;39569;51.090;-1.786;2023-05-20T11:16:03;101804.53;;;31.75;25.85
53246;BME280;39569;51.090;-1.786;2023-05-20T11:18:30;101815.03;;;32.35;26.89
53246;BME280;39569;51.090;-1.786;2023-05-20T11:20:59;101804.06;;;32.77;26.02
53246;BME280;39569;51.090;-1.786;2023-05-20T11:23:27;101800.75;;;32.75;26.69
53246;BME280;39569;51.090;-1.786;2023-05-20T11:25:55;101806.00;;;33.01;24.33
53246;BME280;39569;51.090;-1.786;2023-05-20T11:28:22;101797.22;;;33.12;25.80
53246;BME280;39569;51.090;-1.786;2023-05-20T11:30:50;101795.63;;;32.88;24.38
53246;BME280;39569;51.090;-1.786;2023-05-20T11:33:18;101802.84;;;33.44;25.13
53246;BME280;39569;51.090;-1.786;2023-05-20T11:35:46;101801.47;;;32.86;25.54
53246;BME280;39569;51.090;-1.786;2023-05-20T11:38:15;101797.78;;;32.91;24.72
53246;BME280;39569;51.090;-1.786;2023-05-20T11:40:42;101792.31;;;32.86;24.88
53246;BME280;39569;51.090;-1.786;2023-05-20T11:43:11;101798.69;;;32.39;25.98
53246;BME280;39569;51.090;-1.786;2023-05-20T11:45:38;101784.66;;;33.01;24.72
53246;BME280;39569;51.090;-1.786;2023-05-20T11:48:06;101784.34;;;33.40;26.26
53246;BME280;39569;51.090;-1.786;2023-05-20T11:50:34;101782.06;;;33.79;25.59
53246;BME280;39569;51.090;-1.786;2023-05-20T11:53:04;101778.28;;;34.21;24.81
53246;BME280;39569;51.090;-1.786;2023-05-20T11:55:33;101778.94;;;34.58;22.20
53246;BME280;39569;51.090;-1.786;2023-05-20T11:58:02;101775.22;;;33.90;24.08
53246;BME280;39569;51.090;-1.786;2023-05-20T12:00:29;101776.34;;;33.38;24.40
53246;BME280;39569;51.090;-1.786;2023-05-20T12:02:58;101765.88;;;33.86;23.64
53246;BME280;39569;51.090;-1.786;2023-05-20T12:05:25;101766.16;;;33.71;23.24
53246;BME280;39569;51.090;-1.786;2023-05-20T12:07:52;101767.09;;;33.94;23.19
53246;BME280;39569;51.090;-1.786;2023-05-20T12:10:19;101755.44;;;33.64;23.42
53246;BME280;39569;51.090;-1.786;2023-05-20T12:12:47;101756.31;;;33.79;22.04
53246;BME280;39569;51.090;-1.786;2023-05-20T12:15:14;101758.41;;;33.68;23.62
53246;BME280;39569;51.090;-1.786;2023-05-20T12:17:46;101751.47;;;34.43;23.54
53246;BME280;39569;51.090;-1.786;2023-05-20T12:20:14;101758.25;;;33.46;22.95
53246;BME280;39569;51.090;-1.786;2023-05-20T12:22:42;101758.28;;;32.85;24.48
53246;BME280;39569;51.090;-1.786;2023-05-20T12:25:11;101745.84;;;33.57;23.78
53246;BME280;39569;51.090;-1.786;2023-05-20T12:27:39;101748.28;;;34.36;23.18
53246;BME280;39569;51.090;-1.786;2023-05-20T12:30:09;101745.34;;;34.46;22.53
53246;BME280;39569;51.090;-1.786;2023-05-20T12:32:36;101751.44;;;34.98;23.68
53246;BME280;39569;51.090;-1.786;2023-05-20T12:35:04;101747.97;;;35.72;21.32
53246;BME280;39569;51.090;-1.786;2023-05-20T12:37:31;101741.50;;;35.85;20.96
53246;BME280;39569;51.090;-1.786;2023-05-20T12:39:58;101733.09;;;34.47;23.05
53246;BME280;39569;51.090;-1.786;2023-05-20T12:42:24;101745.00;;;33.24;22.02